Taiseimaru — JL6483 — position and weather

sailwx.info

Track history (hours):
 
Tides and Currents Weather Stations Pressure Air Temp Water Temp Dewpoint Dewpoint Depression Visibility Wind Speed Wind Dir Waves Ship Positions

Taiseimaru

Last reported at 2014-Oct-31 04:33 UTC. Time now 2014-Nov-01 05:34 UTC.
Position N 35°11' E 139°46'.

Length 84 m; draft 4.7 m.

Type: Cargo ship. MMSI: 431500568.

Date/timePositionNaut miles runAvg speedWind from/ knotsBaromVisibWave heightAir tempDewpointWater temp
2014-Oct-31 04:33N 35°11' E 139°46'1111.2
2014-Oct-31 03:34N 35°22' E 139°42'6 6.0
2014-Oct-31 02:33N 35°28' E 139°43'0 0.0
2014-Oct-31 01:31N 35°28' E 139°43'0 0.0
2014-Oct-31 00:31N 35°28' E 139°43'0 0.0
2014-Oct-30 23:31N 35°28' E 139°43'0 0.0
2014-Oct-30 22:28N 35°28' E 139°43'0 0.0
2014-Oct-30 21:31N 35°28' E 139°43'0 0.0
2014-Oct-30 20:28N 35°28' E 139°43'0 0.0
2014-Oct-30 19:31N 35°28' E 139°43'0 0.0
2014-Oct-30 18:31N 35°28' E 139°43'0 0.0
2014-Oct-30 17:31N 35°28' E 139°43'0 0.0
2014-Oct-30 16:34N 35°28' E 139°43'0 0.0
2014-Oct-30 15:33N 35°28' E 139°43'0 0.0
2014-Oct-30 14:33N 35°28' E 139°43'0 0.0
2014-Oct-30 13:33N 35°28' E 139°43'0 0.0
2014-Oct-30 12:33N 35°28' E 139°43'0 0.0
2014-Oct-30 11:33N 35°28' E 139°43'0 0.0
2014-Oct-30 10:33N 35°28' E 139°43'0 0.0
2014-Oct-30 09:33N 35°28' E 139°43'0 0.0
2014-Oct-30 08:33N 35°28' E 139°43'0 0.0
2014-Oct-30 07:33N 35°28' E 139°43'0 0.0
2014-Oct-30 06:33N 35°28' E 139°43'0 0.0
2014-Oct-30 05:33N 35°28' E 139°43'0 0.0
2014-Oct-30 04:33N 35°28' E 139°43'0 0.0
2014-Oct-30 03:33N 35°28' E 139°43'0 0.0
2014-Oct-30 02:33N 35°28' E 139°43'0 0.0
2014-Oct-30 01:30N 35°28' E 139°43'0 0.0
2014-Oct-30 00:30N 35°28' E 139°43'0 0.0
2014-Oct-29 23:33N 35°28' E 139°43'4 3.9
2014-Oct-29 22:33N 35°25' E 139°45'0 0.3
2014-Oct-29 21:33N 35°24' E 139°45'0 0.0
2014-Oct-29 20:27N 35°24' E 139°45'0 0.0
2014-Oct-29 19:33N 35°24' E 139°45'0 0.0
2014-Oct-29 18:33N 35°24' E 139°45'0 0.0
2014-Oct-29 17:24N 35°24' E 139°45'0 0.1
2014-Oct-29 16:33N 35°24' E 139°45'0 0.0
2014-Oct-29 15:33N 35°24' E 139°45'0 0.0
2014-Oct-29 14:33N 35°24' E 139°45'0 0.0
2014-Oct-29 13:33N 35°24' E 139°45'0 0.1
2014-Oct-29 12:33N 35°24' E 139°45'2 1.7
2014-Oct-29 11:33N 35°26' E 139°43'5 4.6
2014-Oct-29 10:31N 35°29' E 139°39'0 0.0
2014-Oct-29 09:31N 35°29' E 139°39'0 0.0
2014-Oct-29 08:31N 35°29' E 139°39'0 0.0
2014-Oct-29 07:31N 35°29' E 139°39'0 0.0
2014-Oct-29 06:31N 35°29' E 139°39'0 0.0
2014-Oct-29 05:31N 35°29' E 139°39'0 0.0
2014-Oct-29 04:31N 35°29' E 139°39'0 0.0
2014-Oct-29 03:25N 35°29' E 139°39'0 0.0
2014-Oct-29 02:31N 35°29' E 139°39'6 5.9
2014-Oct-29 01:33N 35°26' E 139°45'7 6.6
2014-Oct-29 00:28N 35°20' E 139°50'0 0.0
2014-Oct-28 23:34N 35°20' E 139°50'0 0.0
2014-Oct-28 22:24N 35°20' E 139°50'0 0.0
2014-Oct-28 21:33N 35°20' E 139°50'0 0.0
2014-Oct-28 20:33N 35°20' E 139°50'0 0.0
2014-Oct-28 19:33N 35°20' E 139°50'0 0.0
2014-Oct-28 18:33N 35°20' E 139°50'0 0.0
2014-Oct-28 17:33N 35°20' E 139°50'0 0.0
2014-Oct-28 16:30N 35°20' E 139°50'0 0.0
2014-Oct-28 15:33N 35°20' E 139°50'0 0.0
2014-Oct-28 14:33N 35°20' E 139°50'0 0.0
2014-Oct-28 13:33N 35°20' E 139°50'0 0.0
2014-Oct-28 12:30N 35°20' E 139°50'0 0.0
2014-Oct-28 11:30N 35°20' E 139°50'0 0.0
2014-Oct-28 10:21N 35°20' E 139°50'0 0.0
2014-Oct-28 09:30N 35°20' E 139°50'0 0.0
2014-Oct-28 08:33N 35°20' E 139°50'0 0.0
2014-Oct-28 07:33N 35°20' E 139°50'0 0.0
2014-Oct-28 06:30N 35°20' E 139°50'0 0.0
2014-Oct-28 05:30N 35°20' E 139°50'0 0.0
2014-Oct-28 04:33N 35°20' E 139°50'0 0.0
2014-Oct-28 03:18N 35°20' E 139°50'0 0.0
2014-Oct-28 02:18N 35°20' E 139°50'0 0.0
2014-Oct-28 01:21N 35°20' E 139°50'0 0.0
2014-Oct-27 23:33N 35°20' E 139°50'0 0.0
2014-Oct-27 22:33N 35°20' E 139°50'2 2.5
2014-Oct-27 21:33N 35°22' E 139°48'0 0.0
2014-Oct-27 20:33N 35°22' E 139°48'0 0.0
2014-Oct-27 19:33N 35°22' E 139°48'0 0.0
2014-Oct-27 18:33N 35°22' E 139°48'0 0.0
2014-Oct-27 17:33N 35°22' E 139°48'1 0.8
2014-Oct-27 16:34N 35°22' E 139°47'8 7.5
2014-Oct-27 15:34N 35°14' E 139°47'11 9.5
2014-Oct-27 14:24N 35°04' E 139°41'  
Track history (hours):
 
Tides and Currents Weather Stations Pressure Air Temp Water Temp Dewpoint Dewpoint Depression Visibility Wind Speed Wind Dir Waves Ship Positions

Taiseimaru

Last reported at 2014-Oct-31 04:33 UTC. Time now 2014-Nov-01 05:34 UTC.
Position N 35°11' E 139°46'.

Length 84 m; draft 4.7 m.

Type: Cargo ship. MMSI: 431500568.

Date/timePositionNaut miles runAvg speedWind from/ knotsBaromVisibWave heightAir tempDewpointWater temp
2014-Oct-31 04:33N 35°11' E 139°46'1111.2
2014-Oct-31 03:34N 35°22' E 139°42'6 6.0
2014-Oct-31 02:33N 35°28' E 139°43'0 0.0
2014-Oct-31 01:31N 35°28' E 139°43'0 0.0
2014-Oct-31 00:31N 35°28' E 139°43'0 0.0
2014-Oct-30 23:31N 35°28' E 139°43'0 0.0
2014-Oct-30 22:28N 35°28' E 139°43'0 0.0
2014-Oct-30 21:31N 35°28' E 139°43'0 0.0
2014-Oct-30 20:28N 35°28' E 139°43'0 0.0
2014-Oct-30 19:31N 35°28' E 139°43'0 0.0
2014-Oct-30 18:31N 35°28' E 139°43'0 0.0
2014-Oct-30 17:31N 35°28' E 139°43'0 0.0
2014-Oct-30 16:34N 35°28' E 139°43'0 0.0
2014-Oct-30 15:33N 35°28' E 139°43'0 0.0
2014-Oct-30 14:33N 35°28' E 139°43'0 0.0
2014-Oct-30 13:33N 35°28' E 139°43'0 0.0
2014-Oct-30 12:33N 35°28' E 139°43'0 0.0
2014-Oct-30 11:33N 35°28' E 139°43'0 0.0
2014-Oct-30 10:33N 35°28' E 139°43'0 0.0
2014-Oct-30 09:33N 35°28' E 139°43'0 0.0
2014-Oct-30 08:33N 35°28' E 139°43'0 0.0
2014-Oct-30 07:33N 35°28' E 139°43'0 0.0
2014-Oct-30 06:33N 35°28' E 139°43'0 0.0
2014-Oct-30 05:33N 35°28' E 139°43'0 0.0
2014-Oct-30 04:33N 35°28' E 139°43'0 0.0
2014-Oct-30 03:33N 35°28' E 139°43'0 0.0
2014-Oct-30 02:33N 35°28' E 139°43'0 0.0
2014-Oct-30 01:30N 35°28' E 139°43'0 0.0
2014-Oct-30 00:30N 35°28' E 139°43'0 0.0
2014-Oct-29 23:33N 35°28' E 139°43'4 3.9
2014-Oct-29 22:33N 35°25' E 139°45'0 0.3
2014-Oct-29 21:33N 35°24' E 139°45'0 0.0
2014-Oct-29 20:27N 35°24' E 139°45'0 0.0
2014-Oct-29 19:33N 35°24' E 139°45'0 0.0
2014-Oct-29 18:33N 35°24' E 139°45'0 0.0
2014-Oct-29 17:24N 35°24' E 139°45'0 0.1
2014-Oct-29 16:33N 35°24' E 139°45'0 0.0
2014-Oct-29 15:33N 35°24' E 139°45'0 0.0
2014-Oct-29 14:33N 35°24' E 139°45'0 0.0
2014-Oct-29 13:33N 35°24' E 139°45'0 0.1
2014-Oct-29 12:33N 35°24' E 139°45'2 1.7
2014-Oct-29 11:33N 35°26' E 139°43'5 4.6
2014-Oct-29 10:31N 35°29' E 139°39'0 0.0
2014-Oct-29 09:31N 35°29' E 139°39'0 0.0
2014-Oct-29 08:31N 35°29' E 139°39'0 0.0
2014-Oct-29 07:31N 35°29' E 139°39'0 0.0
2014-Oct-29 06:31N 35°29' E 139°39'0 0.0
2014-Oct-29 05:31N 35°29' E 139°39'0 0.0
2014-Oct-29 04:31N 35°29' E 139°39'0 0.0
2014-Oct-29 03:25N 35°29' E 139°39'0 0.0
2014-Oct-29 02:31N 35°29' E 139°39'6 5.9
2014-Oct-29 01:33N 35°26' E 139°45'7 6.6
2014-Oct-29 00:28N 35°20' E 139°50'0 0.0
2014-Oct-28 23:34N 35°20' E 139°50'0 0.0
2014-Oct-28 22:24N 35°20' E 139°50'0 0.0
2014-Oct-28 21:33N 35°20' E 139°50'0 0.0
2014-Oct-28 20:33N 35°20' E 139°50'0 0.0
2014-Oct-28 19:33N 35°20' E 139°50'0 0.0
2014-Oct-28 18:33N 35°20' E 139°50'0 0.0
2014-Oct-28 17:33N 35°20' E 139°50'0 0.0
2014-Oct-28 16:30N 35°20' E 139°50'0 0.0
2014-Oct-28 15:33N 35°20' E 139°50'0 0.0
2014-Oct-28 14:33N 35°20' E 139°50'0 0.0
2014-Oct-28 13:33N 35°20' E 139°50'0 0.0
2014-Oct-28 12:30N 35°20' E 139°50'0 0.0
2014-Oct-28 11:30N 35°20' E 139°50'0 0.0
2014-Oct-28 10:21N 35°20' E 139°50'0 0.0
2014-Oct-28 09:30N 35°20' E 139°50'0 0.0
2014-Oct-28 08:33N 35°20' E 139°50'0 0.0
2014-Oct-28 07:33N 35°20' E 139°50'0 0.0
2014-Oct-28 06:30N 35°20' E 139°50'0 0.0
2014-Oct-28 05:30N 35°20' E 139°50'0 0.0
2014-Oct-28 04:33N 35°20' E 139°50'0 0.0
2014-Oct-28 03:18N 35°20' E 139°50'0 0.0
2014-Oct-28 02:18N 35°20' E 139°50'0 0.0
2014-Oct-28 01:21N 35°20' E 139°50'0 0.0
2014-Oct-27 23:33N 35°20' E 139°50'0 0.0
2014-Oct-27 22:33N 35°20' E 139°50'2 2.5
2014-Oct-27 21:33N 35°22' E 139°48'0 0.0
2014-Oct-27 20:33N 35°22' E 139°48'0 0.0
2014-Oct-27 19:33N 35°22' E 139°48'0 0.0
2014-Oct-27 18:33N 35°22' E 139°48'0 0.0
2014-Oct-27 17:33N 35°22' E 139°48'1 0.8
2014-Oct-27 16:34N 35°22' E 139°47'8 7.5
2014-Oct-27 15:34N 35°14' E 139°47'11 9.5
2014-Oct-27 14:24N 35°04' E 139°41'  

Dump ship's entire track history